createdAt,value
2022-11-21T00:00:07.015Z,3.57
2022-11-21T00:02:55.004Z,3.59
2022-11-21T00:05:45.394Z,3.52
2022-11-21T00:08:33.102Z,3.57
2022-11-21T00:11:22.563Z,3.64
2022-11-21T00:14:10.209Z,3.61
2022-11-21T00:16:58.097Z,3.61
2022-11-21T00:19:46.105Z,3.61
2022-11-21T00:22:33.855Z,3.70
2022-11-21T00:25:21.963Z,3.64
2022-11-21T00:28:10.996Z,3.67
2022-11-21T00:30:59.140Z,3.74
2022-11-21T00:33:47.187Z,3.77
2022-11-21T00:36:35.291Z,3.71
2022-11-21T00:39:23.163Z,3.69
2022-11-21T00:42:10.920Z,3.59
2022-11-21T00:45:00.725Z,3.66
2022-11-21T00:47:48.415Z,3.74
2022-11-21T00:50:36.805Z,3.85
2022-11-21T00:53:24.856Z,3.76
2022-11-21T00:56:12.716Z,3.93
2022-11-21T00:59:00.724Z,3.94
2022-11-21T01:01:49.887Z,3.98
2022-11-21T01:04:38.318Z,3.97
2022-11-21T01:07:26.329Z,3.87
2022-11-21T01:10:13.911Z,4.05
2022-11-21T01:13:01.927Z,3.89
2022-11-21T01:15:49.874Z,3.95
2022-11-21T01:18:39.443Z,3.97
2022-11-21T01:21:29.687Z,4.01
2022-11-21T01:24:17.522Z,3.96
2022-11-21T01:27:05.667Z,3.95
2022-11-21T01:29:53.607Z,3.97
2022-11-21T01:32:41.752Z,4.05
2022-11-21T01:35:31.058Z,4.18
2022-11-21T01:38:19.237Z,4.21
2022-11-21T01:41:07.527Z,4.00
2022-11-21T01:43:56.523Z,4.09
2022-11-21T01:46:44.329Z,4.08
2022-11-21T01:49:33.816Z,4.07
2022-11-21T01:52:26.481Z,4.11
2022-11-21T01:55:14.669Z,4.08
2022-11-21T01:58:03.388Z,4.17
2022-11-21T02:00:51.687Z,4.16
2022-11-21T02:03:41.451Z,4.19
2022-11-21T02:06:30.420Z,4.16
2022-11-21T02:09:20.142Z,4.29
2022-11-21T02:12:13.047Z,4.15
2022-11-21T02:15:01.595Z,4.15
2022-11-21T02:17:49.641Z,4.13
2022-11-21T02:20:38.931Z,4.32
2022-11-21T02:23:33.534Z,4.36
2022-11-21T02:26:23.011Z,4.37
2022-11-21T02:29:10.994Z,4.28
2022-11-21T02:32:01.678Z,4.41
2022-11-21T02:34:49.323Z,4.27
2022-11-21T02:37:38.573Z,4.42
2022-11-21T02:40:30.428Z,4.35
2022-11-21T02:43:24.344Z,4.27
2022-11-21T02:46:12.055Z,4.25
2022-11-21T02:49:00.711Z,4.27
2022-11-21T02:51:48.872Z,4.35
2022-11-21T02:54:36.860Z,4.35
2022-11-21T02:57:25.004Z,4.39
2022-11-21T03:00:40.648Z,4.43
2022-11-21T03:03:28.784Z,4.35
2022-11-21T03:06:17.414Z,4.29
2022-11-21T03:09:05.484Z,4.40
2022-11-21T03:11:53.436Z,4.30
2022-11-21T03:14:41.319Z,4.20
2022-11-21T03:17:30.730Z,4.18
2022-11-21T03:20:18.731Z,4.32
2022-11-21T03:23:06.590Z,4.33
2022-11-21T03:26:00.991Z,4.42
2022-11-21T03:28:48.676Z,4.29
2022-11-21T03:31:36.657Z,4.40
2022-11-21T03:34:26.157Z,4.35
2022-11-21T03:37:14.400Z,4.25
2022-11-21T03:40:02.448Z,4.33
2022-11-21T03:42:50.339Z,4.22
2022-11-21T03:45:38.267Z,4.32
2022-11-21T03:48:26.457Z,4.32
2022-11-21T03:51:16.119Z,4.30
2022-11-21T03:54:04.731Z,4.35
2022-11-21T03:56:52.883Z,4.32
2022-11-21T03:59:40.556Z,4.43
2022-11-21T04:02:28.516Z,4.50
2022-11-21T04:05:16.504Z,4.56
2022-11-21T04:08:05.840Z,4.55
2022-11-21T04:10:55.346Z,4.45
2022-11-21T04:13:43.329Z,4.39
2022-11-21T04:16:31.169Z,4.57
2022-11-21T04:19:18.982Z,4.51
2022-11-21T04:22:09.654Z,4.53
2022-11-21T04:24:59.166Z,4.57
2022-11-21T04:27:46.766Z,4.56
2022-11-21T04:30:35.932Z,4.60
2022-11-21T04:33:23.573Z,4.61
2022-11-21T04:36:11.618Z,4.62
2022-11-21T04:38:59.515Z,4.73
2022-11-21T04:41:48.871Z,4.68
2022-11-21T04:44:36.802Z,4.62
2022-11-21T04:47:24.737Z,4.61
2022-11-21T04:50:15.151Z,4.58
2022-11-21T04:53:03.315Z,4.57
2022-11-21T04:55:51.301Z,4.57
2022-11-21T04:58:40.464Z,4.59
2022-11-21T05:01:28.388Z,4.62
2022-11-21T05:04:16.411Z,4.64
2022-11-21T05:07:04.074Z,4.67
2022-11-21T05:09:51.975Z,4.65
2022-11-21T05:12:57.305Z,4.64
2022-11-21T05:15:47.586Z,4.70
2022-11-21T05:18:35.523Z,4.74
2022-11-21T05:21:23.456Z,4.71
2022-11-21T05:24:11.719Z,4.76
2022-11-21T05:26:59.483Z,4.73
2022-11-21T05:29:47.664Z,4.73
2022-11-21T05:32:36.756Z,4.69
2022-11-21T05:35:24.865Z,4.68
2022-11-21T05:38:12.993Z,4.74
2022-11-21T05:41:00.923Z,4.76
2022-11-21T05:43:50.118Z,4.69
2022-11-21T05:46:38.263Z,4.70
2022-11-21T05:49:27.515Z,4.69
2022-11-21T05:52:15.568Z,4.69
2022-11-21T05:55:03.326Z,4.69
2022-11-21T05:57:51.377Z,4.67
2022-11-21T06:00:39.567Z,4.68
2022-11-21T06:03:27.184Z,4.66
2022-11-21T06:06:22.160Z,4.64
2022-11-21T06:09:12.655Z,4.62
2022-11-21T06:12:00.347Z,4.63
2022-11-21T06:14:48.282Z,4.60
2022-11-21T06:17:36.300Z,4.60
2022-11-21T06:20:24.279Z,4.59
2022-11-21T06:23:13.732Z,4.60
2022-11-21T06:26:02.677Z,4.60
2022-11-21T06:28:51.430Z,4.59
2022-11-21T06:31:39.292Z,4.59
2022-11-21T06:34:27.993Z,4.59
2022-11-21T06:37:16.003Z,4.59
2022-11-21T06:40:06.047Z,4.59
2022-11-21T06:42:54.039Z,4.62
2022-11-21T06:45:42.280Z,4.61
2022-11-21T06:48:29.873Z,4.60
2022-11-21T06:51:20.026Z,4.59
2022-11-21T06:54:08.761Z,4.60
2022-11-21T06:56:59.906Z,4.60
2022-11-21T06:59:48.120Z,4.61
2022-11-21T07:02:36.313Z,4.62
2022-11-21T07:05:23.996Z,4.61
2022-11-21T07:08:13.553Z,4.62
2022-11-21T07:11:24.182Z,4.63
2022-11-21T07:14:12.628Z,4.65
2022-11-21T07:17:00.584Z,4.65
2022-11-21T07:19:48.619Z,4.65
2022-11-21T07:22:36.630Z,4.65
2022-11-21T07:25:24.572Z,4.64
2022-11-21T07:28:13.335Z,4.66
2022-11-21T07:31:07.089Z,4.68
2022-11-21T07:33:58.072Z,4.70
2022-11-21T07:36:45.875Z,4.73
2022-11-21T07:39:33.719Z,4.75
2022-11-21T07:42:21.498Z,4.77
2022-11-21T07:45:10.119Z,4.78
2022-11-21T07:48:04.694Z,4.81
2022-11-21T07:50:52.353Z,4.86
2022-11-21T07:53:40.323Z,4.90
2022-11-21T07:56:28.130Z,4.93
2022-11-21T07:59:16.105Z,4.94
2022-11-21T08:02:04.651Z,4.99
2022-11-21T08:04:54.228Z,5.00
2022-11-21T08:07:41.965Z,5.05
2022-11-21T08:10:30.020Z,5.05
2022-11-21T08:13:17.867Z,5.09
2022-11-21T08:16:06.242Z,5.13
2022-11-21T08:18:53.955Z,5.22
2022-11-21T08:21:43.175Z,5.22
2022-11-21T08:24:30.971Z,5.26
2022-11-21T08:27:21.104Z,5.33
2022-11-21T08:30:11.040Z,5.33
2022-11-21T08:32:59.599Z,5.35
2022-11-21T08:35:47.616Z,5.37
2022-11-21T08:38:37.030Z,5.38
2022-11-21T08:41:42.654Z,5.45
2022-11-21T08:44:30.730Z,5.43
2022-11-21T08:47:19.163Z,5.52
2022-11-21T08:50:09.241Z,5.60
2022-11-21T08:53:02.212Z,5.68
2022-11-21T08:55:51.371Z,5.73
2022-11-21T08:58:38.943Z,5.81
2022-11-21T09:01:26.892Z,5.94
2022-11-21T09:04:15.414Z,6.07
2022-11-21T09:07:04.230Z,6.13
2022-11-21T09:09:52.116Z,6.29
2022-11-21T09:12:41.452Z,6.34
2022-11-21T09:15:46.486Z,6.42
2022-11-21T09:18:34.473Z,6.51
2022-11-21T09:21:22.757Z,6.59
2022-11-21T09:24:10.793Z,6.67
2022-11-21T09:26:58.594Z,6.76
2022-11-21T09:29:53.687Z,6.80
2022-11-21T09:32:42.233Z,6.88
2022-11-21T09:35:41.500Z,6.91
2022-11-21T09:38:30.019Z,6.98
2022-11-21T09:41:46.573Z,6.99
2022-11-21T09:45:00.235Z,7.02
2022-11-21T09:47:51.687Z,7.11
2022-11-21T09:50:43.653Z,7.13
2022-11-21T09:53:36.723Z,7.24
2022-11-21T09:56:25.403Z,7.32
2022-11-21T09:59:30.427Z,7.38
2022-11-21T10:02:21.706Z,7.41
2022-11-21T10:05:15.524Z,7.46
2022-11-21T10:08:13.679Z,7.54
2022-11-21T10:11:19.421Z,7.60
2022-11-21T10:14:19.398Z,7.67
2022-11-21T10:17:16.578Z,7.73
2022-11-21T10:20:19.312Z,7.76
2022-11-21T10:23:29.127Z,7.77
2022-11-21T10:26:23.387Z,7.80
2022-11-21T10:29:18.576Z,7.84
2022-11-21T10:32:18.279Z,7.88
2022-11-21T10:35:16.724Z,7.88
2022-11-21T10:38:15.788Z,7.88
2022-11-21T10:41:07.023Z,7.96
2022-11-21T10:44:19.755Z,7.98
2022-11-21T10:47:16.489Z,8.02
2022-11-21T10:50:16.584Z,8.10
2022-11-21T10:53:33.979Z,8.09
2022-11-21T10:56:24.109Z,8.21
2022-11-21T10:59:25.665Z,8.18
2022-11-21T11:02:27.540Z,8.25
2022-11-21T11:05:24.814Z,8.36
2022-11-21T11:08:14.661Z,8.34
2022-11-21T11:11:05.899Z,8.56
2022-11-21T11:13:58.694Z,8.72
2022-11-21T11:16:48.135Z,8.96
2022-11-21T11:19:40.288Z,9.14
2022-11-21T11:22:31.628Z,9.46
2022-11-21T11:25:19.613Z,9.71
2022-11-21T11:28:09.181Z,9.91
2022-11-21T11:30:59.074Z,10.08
2022-11-21T11:33:55.533Z,10.30
2022-11-21T11:37:06.193Z,10.47
2022-11-21T11:40:05.024Z,10.54
2022-11-21T11:43:32.388Z,10.29
2022-11-21T11:46:53.760Z,10.32
2022-11-21T11:50:04.476Z,10.41
2022-11-21T11:53:00.427Z,10.35
2022-11-21T11:55:55.610Z,10.17
2022-11-21T11:58:49.537Z,9.66
2022-11-21T12:01:42.191Z,10.01
2022-11-21T12:04:36.091Z,10.14
2022-11-21T12:11:02.265Z,10.14
2022-11-21T12:13:55.702Z,10.13
2022-11-21T12:16:43.133Z,10.13
2022-11-21T12:19:31.308Z,10.10
2022-11-21T12:22:41.034Z,10.12
2022-11-21T12:25:33.916Z,10.25
2022-11-21T12:28:29.663Z,10.31
2022-11-21T12:31:25.165Z,10.47
2022-11-21T12:34:26.297Z,10.25
2022-11-21T12:37:28.367Z,10.66
2022-11-21T12:40:36.981Z,10.45
2022-11-21T12:43:36.737Z,10.53
2022-11-21T12:46:37.496Z,10.61
2022-11-21T12:49:54.785Z,10.63
2022-11-21T12:53:06.006Z,10.44
2022-11-21T12:56:01.832Z,10.37
2022-11-21T12:58:52.571Z,10.27
2022-11-21T13:01:51.853Z,10.31
2022-11-21T13:04:42.321Z,10.18
2022-11-21T13:07:32.546Z,10.18
2022-11-21T13:10:20.826Z,10.11
2022-11-21T13:13:19.975Z,9.65
2022-11-21T13:16:12.814Z,9.67
2022-11-21T13:19:02.791Z,9.67
2022-11-21T13:21:52.533Z,9.22
2022-11-21T13:25:02.137Z,9.30
2022-11-21T13:27:49.935Z,9.12
2022-11-21T13:30:48.778Z,9.09
2022-11-21T13:33:49.035Z,9.36
2022-11-21T13:36:45.442Z,9.44
2022-11-21T13:39:35.739Z,9.38
2022-11-21T13:42:41.082Z,9.48
2022-11-21T13:45:45.131Z,9.48
2022-11-21T13:49:00.659Z,9.31
2022-11-21T13:51:54.583Z,9.04
2022-11-21T13:55:03.325Z,9.07
2022-11-21T13:58:00.898Z,9.10
2022-11-21T14:01:13.842Z,8.65
2022-11-21T14:04:27.218Z,8.68
2022-11-21T14:07:26.074Z,8.72
2022-11-21T14:10:32.024Z,8.70
2022-11-21T14:13:29.011Z,8.35
2022-11-21T14:16:28.261Z,8.29
2022-11-21T14:19:20.564Z,8.16
2022-11-21T14:22:17.654Z,8.16
2022-11-21T14:25:11.465Z,8.19
2022-11-21T14:27:59.888Z,8.17
2022-11-21T14:30:47.918Z,8.14
2022-11-21T14:33:37.467Z,8.06
2022-11-21T14:36:29.314Z,7.92
2022-11-21T14:42:38.275Z,7.83
2022-11-21T14:45:26.941Z,7.76
2022-11-21T14:48:26.163Z,7.69
2022-11-21T14:51:42.961Z,7.59
2022-11-21T14:54:35.004Z,7.49
2022-11-21T14:57:27.267Z,7.42
2022-11-21T15:03:36.624Z,7.19
2022-11-21T15:06:26.429Z,7.09
2022-11-21T15:10:25.302Z,6.98
2022-11-21T15:12:29.342Z,6.87
2022-11-21T15:15:30.419Z,6.76
2022-11-21T15:18:28.015Z,6.64
2022-11-21T15:21:17.938Z,6.55
2022-11-21T15:24:18.909Z,6.44
2022-11-21T15:27:29.873Z,6.35
2022-11-21T15:30:24.949Z,6.23
2022-11-21T15:33:15.776Z,6.13
2022-11-21T15:36:14.793Z,6.02
2022-11-21T15:39:05.613Z,5.93
2022-11-21T15:41:53.540Z,5.81
2022-11-21T15:44:59.295Z,5.70
2022-11-21T15:47:47.403Z,5.60
2022-11-21T15:50:38.006Z,5.49
2022-11-21T15:53:26.215Z,5.39
2022-11-21T15:56:21.464Z,5.27
2022-11-21T15:59:11.498Z,5.16
2022-11-21T16:01:59.321Z,5.05
2022-11-21T16:04:47.275Z,4.98
2022-11-21T16:07:36.611Z,4.88
2022-11-21T16:10:28.019Z,4.77
2022-11-21T16:13:16.365Z,4.66
2022-11-21T16:16:04.443Z,4.58
2022-11-21T16:18:52.414Z,4.50
2022-11-21T16:21:41.002Z,4.40
2022-11-21T16:24:30.513Z,4.31
2022-11-21T16:27:19.112Z,4.21
2022-11-21T16:30:08.460Z,4.13
2022-11-21T16:32:56.725Z,4.04
2022-11-21T16:35:44.372Z,3.96
2022-11-21T16:38:32.390Z,3.89
2022-11-21T16:41:23.190Z,3.79
2022-11-21T16:44:14.787Z,3.69
2022-11-21T16:47:08.088Z,3.62
2022-11-21T16:49:56.881Z,3.55
2022-11-21T16:52:44.851Z,3.47
2022-11-21T16:55:32.958Z,3.41
2022-11-21T16:58:22.047Z,3.34
2022-11-21T17:01:12.186Z,3.26
2022-11-21T17:04:00.486Z,3.15
2022-11-21T17:06:49.072Z,3.00
2022-11-21T17:09:37.142Z,2.84
2022-11-21T17:12:24.945Z,2.83
2022-11-21T17:15:15.664Z,2.83
2022-11-21T17:18:03.480Z,2.77
2022-11-21T17:20:51.466Z,2.75
2022-11-21T17:23:42.152Z,2.73
2022-11-21T17:26:30.857Z,2.64
2022-11-21T17:29:19.060Z,2.55
2022-11-21T17:32:08.648Z,2.55
2022-11-21T17:34:56.373Z,2.50
2022-11-21T17:37:44.470Z,2.41
2022-11-21T17:40:32.397Z,2.31
2022-11-21T17:43:20.456Z,2.19
2022-11-21T17:46:12.641Z,2.15
2022-11-21T17:49:02.235Z,2.13
2022-11-21T17:51:55.213Z,2.09
2022-11-21T17:54:44.436Z,2.10
2022-11-21T17:57:32.487Z,2.03
2022-11-21T18:00:21.035Z,2.00
2022-11-21T18:03:08.989Z,1.96
2022-11-21T18:06:05.898Z,1.88
2022-11-21T18:08:54.284Z,1.82
2022-11-21T18:11:42.413Z,1.83
2022-11-21T18:14:31.098Z,1.75
2022-11-21T18:17:18.938Z,1.71
2022-11-21T18:20:07.674Z,1.69
2022-11-21T18:22:57.026Z,1.66
2022-11-21T18:25:45.210Z,1.68
2022-11-21T18:28:33.662Z,1.64
2022-11-21T18:31:23.516Z,1.58
2022-11-21T18:34:12.522Z,1.55
2022-11-21T18:37:00.452Z,1.54
2022-11-21T18:39:49.827Z,1.50
2022-11-21T18:42:37.519Z,1.50
2022-11-21T18:45:25.530Z,1.49
2022-11-21T18:48:14.972Z,1.49
2022-11-21T18:51:06.284Z,1.45
2022-11-21T18:53:55.851Z,1.43
2022-11-21T18:56:44.736Z,1.40
2022-11-21T18:59:32.712Z,1.36
2022-11-21T19:02:20.640Z,1.34
2022-11-21T19:05:09.179Z,1.32
2022-11-21T19:07:57.243Z,1.28
2022-11-21T19:10:45.462Z,1.24
2022-11-21T19:13:35.009Z,1.21
2022-11-21T19:16:25.362Z,1.20
2022-11-21T19:22:23.166Z,1.17
2022-11-21T19:25:11.487Z,1.14
2022-11-21T19:28:00.016Z,1.11
2022-11-21T19:30:49.444Z,1.11
2022-11-21T19:33:37.569Z,1.12
2022-11-21T19:36:26.186Z,1.11
2022-11-21T19:39:14.323Z,1.05
2022-11-21T19:42:02.348Z,1.06
2022-11-21T19:45:15.269Z,0.99
2022-11-21T19:48:04.553Z,0.95
2022-11-21T19:50:58.611Z,0.93
2022-11-21T19:53:47.382Z,0.95
2022-11-21T19:56:35.660Z,1.05
2022-11-21T19:59:23.810Z,1.05
2022-11-21T20:02:17.879Z,1.04
2022-11-21T20:05:07.640Z,1.11
2022-11-21T20:08:01.682Z,1.14
2022-11-21T20:10:51.611Z,1.24
2022-11-21T20:13:41.659Z,1.27
2022-11-21T20:16:30.995Z,1.28
2022-11-21T20:19:20.912Z,1.31
2022-11-21T20:22:10.112Z,1.29
2022-11-21T20:24:58.112Z,1.29
2022-11-21T20:27:46.084Z,1.25
2022-11-21T20:30:34.174Z,1.39
2022-11-21T20:33:22.226Z,1.38
2022-11-21T20:36:14.268Z,1.41
2022-11-21T20:39:06.702Z,1.40
2022-11-21T20:48:11.105Z,1.43
2022-11-21T20:54:10.711Z,1.48
2022-11-21T20:56:58.932Z,1.47
2022-11-21T20:59:46.850Z,1.50
2022-11-21T21:02:34.909Z,1.48
2022-11-21T21:05:23.813Z,1.51
2022-11-21T21:08:11.979Z,1.50
2022-11-21T21:11:06.379Z,1.48
2022-11-21T21:13:55.043Z,1.49
2022-11-21T21:16:44.440Z,1.53
2022-11-21T21:19:32.672Z,1.64
2022-11-21T21:22:20.580Z,1.63
2022-11-21T21:25:09.236Z,1.62
2022-11-21T21:27:58.620Z,1.60
2022-11-21T21:30:47.601Z,1.63
2022-11-21T21:33:35.303Z,1.60
2022-11-21T21:36:26.168Z,1.55
2022-11-21T21:39:14.320Z,1.57
2022-11-21T21:42:02.407Z,1.56
2022-11-21T21:44:51.805Z,1.56
2022-11-21T21:47:39.605Z,1.55
2022-11-21T21:50:27.687Z,1.54
2022-11-21T21:53:15.787Z,1.51
2022-11-21T21:56:04.038Z,1.50
2022-11-21T21:59:17.138Z,1.50
2022-11-21T22:02:06.293Z,1.47
2022-11-21T22:04:53.959Z,1.49
2022-11-21T22:07:42.081Z,1.54
2022-11-21T22:10:30.290Z,1.59
2022-11-21T22:13:18.396Z,1.70
2022-11-21T22:16:08.184Z,1.73
2022-11-21T22:18:58.156Z,1.70
2022-11-21T22:21:45.746Z,1.71
2022-11-21T22:24:34.036Z,1.69
2022-11-21T22:27:21.826Z,1.73
2022-11-21T22:30:11.902Z,1.72
2022-11-21T22:32:59.749Z,1.70
2022-11-21T22:35:49.150Z,1.78
2022-11-21T22:38:36.862Z,1.79
2022-11-21T22:41:27.039Z,1.77
2022-11-21T22:44:14.629Z,1.77
2022-11-21T22:47:02.458Z,1.84
2022-11-21T22:49:53.781Z,1.90
2022-11-21T22:52:43.312Z,1.93
2022-11-21T22:55:31.388Z,1.84
2022-11-21T22:58:19.309Z,1.83
2022-11-21T23:01:09.040Z,1.80
2022-11-21T23:03:57.309Z,1.82
2022-11-21T23:06:45.081Z,1.85
2022-11-21T23:09:34.865Z,1.91
2022-11-21T23:12:22.611Z,1.90
2022-11-21T23:15:11.256Z,1.87
2022-11-21T23:17:59.031Z,1.84
2022-11-21T23:20:47.153Z,1.83
2022-11-21T23:23:35.696Z,1.85
2022-11-21T23:26:24.982Z,1.82
2022-11-21T23:29:12.645Z,1.81
2022-11-21T23:32:00.642Z,1.78
2022-11-21T23:34:48.489Z,1.77
2022-11-21T23:37:36.503Z,1.73
2022-11-21T23:40:24.596Z,1.70
2022-11-21T23:43:14.153Z,1.65
2022-11-21T23:46:02.213Z,1.62
2022-11-21T23:48:50.248Z,1.61
2022-11-21T23:51:38.092Z,1.58
2022-11-21T23:54:26.030Z,1.56
2022-11-21T23:57:14.036Z,1.56
